ARG1550 SABE-SACO
Flight info
| Callsign | ARG1550 |
|---|---|
| Flight time | 1h 3m |
| Altitude | 300 |
| Route | ATOV4B ATOVO UW5 ASISA DCT |
| Aircraft | B738/M-SDE/S |
Departure
| Time | 2026-04-26 23:06 |
|---|---|
| Airport | Aeroparque Jorge Newbery (SABE) |
Arrival
| Time | 2026-04-27 00:09 |
|---|---|
| Airport | Ingeniero Aeronáutico Ambrosio L.V. Taravella International Airport (SACO) |
| Time | Latitude | Longitude | Altitude | Speed | Heading |
|---|---|---|---|---|---|
| 2026-04-26 22:21 | -34.55840 | -58.41368 | 27 ft | 0 kts | 208° |
| 2026-04-26 22:45 | -34.55839 | -58.41367 | 27 ft | 0 kts | 208° |
| 2026-04-26 22:45 | -34.55827 | -58.41358 | 27 ft | 2 kts | 210° |
| 2026-04-26 22:46 | -34.55815 | -58.41350 | 27 ft | 1 kts | 209° |
| 2026-04-26 22:46 | -34.55808 | -58.41342 | 27 ft | 1 kts | 261° |
| 2026-04-26 22:46 | -34.55810 | -58.41328 | 27 ft | 1 kts | 317° |
| 2026-04-26 22:46 | -34.55820 | -58.41318 | 27 ft | 0 kts | 311° |
| 2026-04-26 22:47 | -34.55821 | -58.41316 | 27 ft | 0 kts | 308° |
| 2026-04-26 22:49 | -34.55817 | -58.41321 | 27 ft | 3 kts | 308° |
| 2026-04-26 22:49 | -34.55792 | -58.41365 | 27 ft | 7 kts | 303° |
| 2026-04-26 22:49 | -34.55763 | -58.41419 | 27 ft | 8 kts | 301° |
| 2026-04-26 22:50 | -34.55732 | -58.41481 | 27 ft | 9 kts | 298° |
| 2026-04-26 22:50 | -34.55733 | -58.41547 | 27 ft | 7 kts | 236° |
| 2026-04-26 22:50 | -34.55767 | -58.41584 | 27 ft | 5 kts | 206° |
| 2026-04-26 22:50 | -34.55808 | -58.41566 | 27 ft | 9 kts | 130° |
| 2026-04-26 22:51 | -34.55844 | -58.41486 | 27 ft | 12 kts | 116° |
| 2026-04-26 22:51 | -34.55886 | -58.41383 | 27 ft | 13 kts | 116° |
| 2026-04-26 22:51 | -34.55930 | -58.41286 | 27 ft | 13 kts | 123° |
| 2026-04-26 22:51 | -34.55988 | -58.41192 | 27 ft | 14 kts | 128° |
| 2026-04-26 22:52 | -34.56052 | -58.41090 | 27 ft | 15 kts | 126° |
| 2026-04-26 22:52 | -34.56121 | -58.40979 | 27 ft | 16 kts | 126° |
| 2026-04-26 22:52 | -34.56167 | -58.40854 | 27 ft | 15 kts | 104° |
| 2026-04-26 22:52 | -34.56217 | -58.40744 | 27 ft | 13 kts | 124° |
| 2026-04-26 22:53 | -34.56268 | -58.40653 | 27 ft | 12 kts | 123° |
| 2026-04-26 22:53 | -34.56309 | -58.40579 | 27 ft | 1 kts | 129° |
| 2026-04-26 22:54 | -34.56314 | -58.40573 | 27 ft | 4 kts | 130° |
| 2026-04-26 22:55 | -34.56349 | -58.40531 | 27 ft | 9 kts | 138° |
| 2026-04-26 22:55 | -34.56392 | -58.40486 | 27 ft | 7 kts | 138° |
| 2026-04-26 22:55 | -34.56395 | -58.40481 | 27 ft | 0 kts | 138° |
| 2026-04-26 23:02 | -34.56396 | -58.40481 | 27 ft | 0 kts | 138° |
| 2026-04-26 23:03 | -34.56419 | -58.40456 | 27 ft | 9 kts | 139° |
| 2026-04-26 23:03 | -34.56490 | -58.40387 | 27 ft | 13 kts | 155° |
| 2026-04-26 23:03 | -34.56554 | -58.40415 | 27 ft | 10 kts | 252° |
| 2026-04-26 23:03 | -34.56538 | -58.40475 | 27 ft | 0 kts | 302° |
| 2026-04-26 23:05 | -34.56537 | -58.40477 | 27 ft | 1 kts | 302° |
| 2026-04-26 23:05 | -34.56468 | -58.40601 | 27 ft | 53 kts | 304° |
| 2026-04-26 23:05 | -34.56105 | -58.41251 | 27 ft | 129 kts | 303° |
| 2026-04-26 23:05 | -34.55495 | -58.42322 | 363 ft | 165 kts | 301° |
| 2026-04-26 23:06 | -34.54684 | -58.43267 | 1320 ft | 170 kts | 322° |
| 2026-04-26 23:06 | -34.53436 | -58.43560 | 1792 ft | 207 kts | 359° |
| 2026-04-26 23:06 | -34.52036 | -58.42929 | 2413 ft | 226 kts | 26° |
| 2026-04-26 23:06 | -34.50676 | -58.41837 | 2849 ft | 250 kts | 30° |
| 2026-04-26 23:07 | -34.49212 | -58.40616 | 3435 ft | 264 kts | 29° |
| 2026-04-26 23:07 | -34.48154 | -58.39774 | 3773 ft | 277 kts | 28° |
| 2026-04-26 23:07 | -34.45905 | -58.38102 | 4471 ft | 302 kts | 27° |
| 2026-04-26 23:07 | -34.44052 | -58.36831 | 5123 ft | 310 kts | 25° |
| 2026-04-26 23:08 | -34.42091 | -58.35559 | 5023 ft | 323 kts | 22° |
| 2026-04-26 23:08 | -34.40016 | -58.34661 | 4951 ft | 307 kts | 5° |
| 2026-04-26 23:08 | -34.37979 | -58.34562 | 4944 ft | 285 kts | 343° |
| 2026-04-26 23:08 | -34.36158 | -58.35265 | 5058 ft | 269 kts | 325° |
| 2026-04-26 23:09 | -34.34502 | -58.36350 | 5212 ft | 268 kts | 319° |
| 2026-04-26 23:09 | -34.32937 | -58.37551 | 5931 ft | 266 kts | 319° |
| 2026-04-26 23:09 | -34.31345 | -58.38662 | 6735 ft | 275 kts | 322° |
| 2026-04-26 23:09 | -34.29652 | -58.39870 | 7367 ft | 285 kts | 320° |
| 2026-04-26 23:10 | -34.27977 | -58.41113 | 8251 ft | 288 kts | 320° |
| 2026-04-26 23:10 | -34.26288 | -58.42392 | 9146 ft | 289 kts | 319° |
| 2026-04-26 23:10 | -34.24585 | -58.43690 | 9951 ft | 293 kts | 320° |
| 2026-04-26 23:10 | -34.22851 | -58.45021 | 10644 ft | 302 kts | 319° |
| 2026-04-26 23:11 | -34.21046 | -58.46408 | 11220 ft | 314 kts | 319° |
| 2026-04-26 23:11 | -34.19160 | -58.47841 | 11721 ft | 328 kts | 319° |
| 2026-04-26 23:11 | -34.17188 | -58.49331 | 12203 ft | 341 kts | 319° |
| 2026-04-26 23:11 | -34.15154 | -58.50853 | 12926 ft | 345 kts | 319° |
| 2026-04-26 23:12 | -34.13113 | -58.52329 | 13773 ft | 345 kts | 319° |
| 2026-04-26 23:12 | -34.11014 | -58.53811 | 14369 ft | 353 kts | 320° |
| 2026-04-26 23:12 | -34.08912 | -58.55291 | 15180 ft | 353 kts | 318° |
| 2026-04-26 23:12 | -34.06788 | -58.56733 | 16092 ft | 349 kts | 318° |
| 2026-04-26 23:13 | -34.04650 | -58.58112 | 16831 ft | 352 kts | 319° |
| 2026-04-26 23:13 | -34.02460 | -58.59502 | 17363 ft | 358 kts | 319° |
| 2026-04-26 23:13 | -34.00241 | -58.60873 | 18207 ft | 354 kts | 319° |
| 2026-04-26 23:13 | -33.98037 | -58.62215 | 18676 ft | 362 kts | 319° |
| 2026-04-26 23:14 | -33.95832 | -58.63537 | 19538 ft | 357 kts | 319° |
| 2026-04-26 23:14 | -33.93553 | -58.64901 | 19954 ft | 365 kts | 320° |
| 2026-04-26 23:14 | -33.91298 | -58.66266 | 20588 ft | 367 kts | 320° |
| 2026-04-26 23:14 | -33.89002 | -58.67668 | 21204 ft | 369 kts | 320° |
| 2026-04-26 23:15 | -33.86732 | -58.69049 | 21854 ft | 370 kts | 320° |
| 2026-04-26 23:15 | -33.84435 | -58.70454 | 22192 ft | 378 kts | 320° |
| 2026-04-26 23:15 | -33.82102 | -58.71894 | 22821 ft | 378 kts | 320° |
| 2026-04-26 23:15 | -33.79771 | -58.73330 | 23484 ft | 378 kts | 319° |
| 2026-04-26 23:16 | -33.77406 | -58.74782 | 23860 ft | 384 kts | 320° |
| 2026-04-26 23:16 | -33.75005 | -58.76271 | 23988 ft | 390 kts | 320° |
| 2026-04-26 23:16 | -33.72620 | -58.77786 | 24106 ft | 388 kts | 318° |
| 2026-04-26 23:16 | -33.70451 | -58.79594 | 24867 ft | 369 kts | 308° |
| 2026-04-26 23:17 | -33.68703 | -58.81726 | 25429 ft | 357 kts | 298° |
| 2026-04-26 23:17 | -33.67381 | -58.84198 | 25850 ft | 349 kts | 288° |
| 2026-04-26 23:17 | -33.66523 | -58.86884 | 26370 ft | 344 kts | 281° |
| 2026-04-26 23:17 | -33.65866 | -58.89665 | 26786 ft | 347 kts | 280° |
| 2026-04-26 23:18 | -33.65152 | -58.92409 | 27155 ft | 353 kts | 283° |
| 2026-04-26 23:18 | -33.64266 | -58.95193 | 27606 ft | 357 kts | 286° |
| 2026-04-26 23:18 | -33.63264 | -58.97908 | 28084 ft | 360 kts | 288° |
| 2026-04-26 23:18 | -33.62172 | -59.00634 | 28500 ft | 364 kts | 289° |
| 2026-04-26 23:19 | -33.61029 | -59.03371 | 29002 ft | 364 kts | 289° |
| 2026-04-26 23:19 | -33.59891 | -59.06050 | 29656 ft | 360 kts | 289° |
| 2026-04-26 23:19 | -33.58764 | -59.08699 | 29984 ft | 362 kts | 290° |
| 2026-04-26 23:20 | -33.56479 | -59.14073 | 30020 ft | 362 kts | 289° |
| 2026-04-26 23:20 | -33.54153 | -59.19555 | 30019 ft | 373 kts | 290° |
| 2026-04-26 23:21 | -33.51797 | -59.25082 | 30040 ft | 373 kts | 289° |
| 2026-04-26 23:21 | -33.49436 | -59.30605 | 30022 ft | 371 kts | 290° |
| 2026-04-26 23:22 | -33.47092 | -59.36094 | 30056 ft | 373 kts | 289° |
| 2026-04-26 23:22 | -33.44732 | -59.41618 | 30034 ft | 374 kts | 290° |
| 2026-04-26 23:23 | -33.42350 | -59.47171 | 30039 ft | 375 kts | 290° |
| 2026-04-26 23:23 | -33.39977 | -59.52688 | 30037 ft | 373 kts | 290° |
| 2026-04-26 23:24 | -33.37622 | -59.58164 | 30051 ft | 374 kts | 290° |
| 2026-04-26 23:24 | -33.35236 | -59.63700 | 30035 ft | 376 kts | 290° |
| 2026-04-26 23:25 | -33.32831 | -59.69273 | 30066 ft | 378 kts | 290° |
| 2026-04-26 23:25 | -33.30421 | -59.74840 | 30064 ft | 378 kts | 290° |
| 2026-04-26 23:26 | -33.28012 | -59.80405 | 30062 ft | 380 kts | 290° |
| 2026-04-26 23:26 | -33.25571 | -59.86054 | 30055 ft | 385 kts | 290° |
| 2026-04-26 23:27 | -33.23100 | -59.91744 | 30087 ft | 389 kts | 290° |
| 2026-04-26 23:27 | -33.20614 | -59.97458 | 30051 ft | 386 kts | 290° |
| 2026-04-26 23:28 | -33.18144 | -60.03132 | 30074 ft | 390 kts | 290° |
| 2026-04-26 23:28 | -33.15635 | -60.08877 | 30070 ft | 389 kts | 291° |
| 2026-04-26 23:29 | -33.06419 | -60.29877 | 30074 ft | 389 kts | 291° |
| 2026-04-26 23:29 | -32.98541 | -60.47791 | 30098 ft | 392 kts | 291° |
| 2026-04-26 23:30 | -32.96103 | -60.53307 | 30111 ft | 393 kts | 291° |
| 2026-04-26 23:30 | -32.93647 | -60.58854 | 30123 ft | 392 kts | 291° |
| 2026-04-26 23:31 | -32.91198 | -60.64378 | 30119 ft | 393 kts | 291° |
| 2026-04-26 23:31 | -32.88750 | -60.69891 | 30107 ft | 394 kts | 292° |
| 2026-04-26 23:32 | -32.86285 | -60.75435 | 30109 ft | 394 kts | 292° |
| 2026-04-26 23:32 | -32.83819 | -60.80976 | 30135 ft | 393 kts | 291° |
| 2026-04-26 23:33 | -32.81365 | -60.86487 | 30121 ft | 394 kts | 291° |
| 2026-04-26 23:33 | -32.78889 | -60.92028 | 30105 ft | 394 kts | 292° |
| 2026-04-26 23:34 | -32.76410 | -60.97561 | 30116 ft | 395 kts | 292° |
| 2026-04-26 23:34 | -32.73926 | -61.03101 | 30118 ft | 394 kts | 291° |
| 2026-04-26 23:35 | -32.71444 | -61.08640 | 30135 ft | 396 kts | 292° |
| 2026-04-26 23:35 | -32.68966 | -61.14146 | 30133 ft | 397 kts | 291° |
| 2026-04-26 23:36 | -32.66461 | -61.19712 | 30120 ft | 396 kts | 291° |
| 2026-04-26 23:36 | -32.63968 | -61.25246 | 30135 ft | 397 kts | 292° |
| 2026-04-26 23:37 | -32.61463 | -61.30786 | 30093 ft | 394 kts | 292° |
| 2026-04-26 23:37 | -32.58964 | -61.36318 | 30142 ft | 397 kts | 292° |
| 2026-04-26 23:38 | -32.56465 | -61.41837 | 30121 ft | 395 kts | 292° |
| 2026-04-26 23:38 | -32.53964 | -61.47354 | 30134 ft | 398 kts | 292° |
| 2026-04-26 23:39 | -32.51450 | -61.52892 | 30144 ft | 397 kts | 291° |
| 2026-04-26 23:39 | -32.48927 | -61.58445 | 30130 ft | 398 kts | 292° |
| 2026-04-26 23:40 | -32.46396 | -61.63998 | 30129 ft | 398 kts | 292° |
| 2026-04-26 23:40 | -32.43860 | -61.69555 | 30150 ft | 400 kts | 292° |
| 2026-04-26 23:41 | -32.41336 | -61.75068 | 30131 ft | 398 kts | 292° |
| 2026-04-26 23:41 | -32.38797 | -61.80622 | 30168 ft | 401 kts | 292° |
| 2026-04-26 23:42 | -32.36246 | -61.86183 | 30126 ft | 398 kts | 292° |
| 2026-04-26 23:42 | -32.32360 | -61.94472 | 30138 ft | 401 kts | 294° |
| 2026-04-26 23:43 | -32.29603 | -61.99868 | 30148 ft | 402 kts | 295° |
| 2026-04-26 23:43 | -32.26779 | -62.05329 | 30152 ft | 404 kts | 295° |
| 2026-04-26 23:44 | -32.23989 | -62.10757 | 30153 ft | 401 kts | 295° |
| 2026-04-26 23:44 | -32.21202 | -62.16201 | 30132 ft | 401 kts | 295° |
| 2026-04-26 23:45 | -32.18453 | -62.21578 | 30139 ft | 401 kts | 295° |
| 2026-04-26 23:45 | -32.15688 | -62.26980 | 30152 ft | 400 kts | 295° |
| 2026-04-26 23:46 | -32.12903 | -62.32414 | 30163 ft | 401 kts | 295° |
| 2026-04-26 23:46 | -32.10139 | -62.37795 | 30158 ft | 400 kts | 295° |
| 2026-04-26 23:47 | -32.07372 | -62.43177 | 30150 ft | 398 kts | 295° |
| 2026-04-26 23:47 | -32.04593 | -62.48581 | 30152 ft | 401 kts | 295° |
| 2026-04-26 23:48 | -32.01812 | -62.53974 | 30161 ft | 400 kts | 295° |
| 2026-04-26 23:48 | -31.99029 | -62.59375 | 30143 ft | 403 kts | 295° |
| 2026-04-26 23:49 | -31.95953 | -62.65307 | 30173 ft | 398 kts | 296° |
| 2026-04-26 23:49 | -31.78560 | -62.98790 | 30161 ft | 403 kts | 296° |
| 2026-04-26 23:50 | -31.75168 | -63.05286 | 30051 ft | 397 kts | 295° |
| 2026-04-26 23:50 | -31.73749 | -63.07985 | 29573 ft | 391 kts | 296° |
| 2026-04-26 23:50 | -31.72348 | -63.10652 | 29162 ft | 383 kts | 295° |
| 2026-04-26 23:50 | -31.70984 | -63.13250 | 28649 ft | 378 kts | 296° |
| 2026-04-26 23:51 | -31.69622 | -63.15842 | 28077 ft | 375 kts | 296° |
| 2026-04-26 23:51 | -31.68267 | -63.18420 | 27493 ft | 373 kts | 296° |
| 2026-04-26 23:51 | -31.66941 | -63.20949 | 26913 ft | 370 kts | 296° |
| 2026-04-26 23:51 | -31.65505 | -63.23446 | 26330 ft | 370 kts | 300° |
| 2026-04-26 23:52 | -31.63991 | -63.25797 | 25767 ft | 369 kts | 301° |
| 2026-04-26 23:52 | -31.62418 | -63.28126 | 25186 ft | 367 kts | 302° |
| 2026-04-26 23:52 | -31.60848 | -63.30428 | 24609 ft | 365 kts | 302° |
| 2026-04-26 23:52 | -31.59287 | -63.32735 | 24047 ft | 363 kts | 302° |
| 2026-04-26 23:53 | -31.57741 | -63.35037 | 23477 ft | 361 kts | 301° |
| 2026-04-26 23:53 | -31.56233 | -63.37297 | 22914 ft | 359 kts | 301° |
| 2026-04-26 23:53 | -31.54714 | -63.39578 | 22351 ft | 357 kts | 301° |
| 2026-04-26 23:53 | -31.53202 | -63.41851 | 21783 ft | 355 kts | 301° |
| 2026-04-26 23:54 | -31.51716 | -63.44098 | 21214 ft | 353 kts | 301° |
| 2026-04-26 23:54 | -31.50232 | -63.46350 | 20660 ft | 351 kts | 301° |
| 2026-04-26 23:54 | -31.48768 | -63.48568 | 20106 ft | 349 kts | 301° |
| 2026-04-26 23:54 | -31.43502 | -63.56525 | 17872 ft | 348 kts | 302° |
| 2026-04-26 23:55 | -31.39626 | -63.62363 | 15626 ft | 351 kts | 302° |
| 2026-04-26 23:55 | -31.38206 | -63.64488 | 15309 ft | 341 kts | 302° |
| 2026-04-26 23:55 | -31.36835 | -63.66542 | 15073 ft | 330 kts | 302° |
| 2026-04-26 23:55 | -31.35494 | -63.68555 | 14817 ft | 320 kts | 302° |
| 2026-04-26 23:56 | -31.34193 | -63.70512 | 14471 ft | 314 kts | 302° |
| 2026-04-26 23:56 | -31.32906 | -63.72452 | 13994 ft | 313 kts | 302° |
| 2026-04-26 23:56 | -31.31640 | -63.74359 | 13516 ft | 313 kts | 302° |
| 2026-04-26 23:56 | -31.30344 | -63.76307 | 13013 ft | 312 kts | 303° |
| 2026-04-26 23:57 | -31.29054 | -63.78236 | 12519 ft | 312 kts | 303° |
| 2026-04-26 23:57 | -31.27783 | -63.80135 | 12001 ft | 312 kts | 303° |
| 2026-04-26 23:57 | -31.26502 | -63.82048 | 11500 ft | 311 kts | 303° |
| 2026-04-26 23:57 | -31.25207 | -63.83980 | 10994 ft | 310 kts | 303° |
| 2026-04-26 23:58 | -31.23946 | -63.85857 | 10668 ft | 303 kts | 303° |
| 2026-04-26 23:58 | -31.22715 | -63.87686 | 10521 ft | 290 kts | 303° |
| 2026-04-26 23:58 | -31.21550 | -63.89416 | 10417 ft | 278 kts | 303° |
| 2026-04-26 23:58 | -31.20423 | -63.91096 | 10230 ft | 269 kts | 303° |
| 2026-04-26 23:59 | -31.19323 | -63.92742 | 9847 ft | 268 kts | 303° |
| 2026-04-26 23:59 | -31.18210 | -63.94408 | 9481 ft | 266 kts | 303° |
| 2026-04-26 23:59 | -31.17128 | -63.96020 | 9244 ft | 260 kts | 303° |
| 2026-04-26 23:59 | -31.16068 | -63.97593 | 8996 ft | 255 kts | 303° |
| 2026-04-27 00:00 | -31.15012 | -63.99162 | 8663 ft | 254 kts | 303° |
| 2026-04-27 00:00 | -31.13970 | -64.00713 | 8324 ft | 253 kts | 303° |
| 2026-04-27 00:00 | -31.12919 | -64.02276 | 7977 ft | 253 kts | 303° |
| 2026-04-27 00:00 | -31.11883 | -64.03816 | 7659 ft | 252 kts | 303° |
| 2026-04-27 00:01 | -31.10827 | -64.05386 | 7332 ft | 259 kts | 303° |
| 2026-04-27 00:01 | -31.09767 | -64.06963 | 7064 ft | 258 kts | 303° |
| 2026-04-27 00:01 | -31.08747 | -64.08546 | 6975 ft | 245 kts | 297° |
| 2026-04-27 00:01 | -31.08075 | -64.10208 | 6819 ft | 230 kts | 277° |
| 2026-04-27 00:02 | -31.08029 | -64.11941 | 6682 ft | 215 kts | 262° |
| 2026-04-27 00:02 | -31.08177 | -64.13567 | 6589 ft | 203 kts | 261° |
| 2026-04-27 00:02 | -31.08293 | -64.15098 | 6519 ft | 194 kts | 262° |
| 2026-04-27 00:02 | -31.08379 | -64.16604 | 6371 ft | 191 kts | 263° |
| 2026-04-27 00:03 | -31.08457 | -64.18055 | 6176 ft | 185 kts | 260° |
| 2026-04-27 00:03 | -31.08743 | -64.19425 | 5976 ft | 179 kts | 240° |
| 2026-04-27 00:03 | -31.09519 | -64.20486 | 5828 ft | 179 kts | 217° |
| 2026-04-27 00:03 | -31.10567 | -64.21180 | 5548 ft | 184 kts | 200° |
| 2026-04-27 00:04 | -31.11785 | -64.21371 | 5284 ft | 183 kts | 179° |
| 2026-04-27 00:04 | -31.12993 | -64.21263 | 5049 ft | 179 kts | 176° |
| 2026-04-27 00:04 | -31.14170 | -64.21152 | 4838 ft | 173 kts | 178° |
| 2026-04-27 00:04 | -31.15318 | -64.21075 | 4627 ft | 169 kts | 179° |
| 2026-04-27 00:05 | -31.16461 | -64.21046 | 4327 ft | 170 kts | 179° |
| 2026-04-27 00:05 | -31.17587 | -64.21024 | 4124 ft | 166 kts | 179° |
| 2026-04-27 00:05 | -31.18706 | -64.21059 | 3799 ft | 167 kts | 181° |
| 2026-04-27 00:05 | -31.19781 | -64.21086 | 3571 ft | 153 kts | 177° |
| 2026-04-27 00:06 | -31.20723 | -64.21062 | 3483 ft | 132 kts | 177° |
| 2026-04-27 00:06 | -31.21579 | -64.21028 | 3242 ft | 125 kts | 178° |
| 2026-04-27 00:06 | -31.22422 | -64.21043 | 2926 ft | 124 kts | 178° |
| 2026-04-27 00:06 | -31.23265 | -64.21038 | 2701 ft | 129 kts | 177° |
| 2026-04-27 00:07 | -31.24135 | -64.20965 | 2658 ft | 132 kts | 173° |
| 2026-04-27 00:07 | -31.25005 | -64.20891 | 2826 ft | 125 kts | 179° |
| 2026-04-27 00:07 | -31.25831 | -64.20898 | 3002 ft | 122 kts | 180° |
| 2026-04-27 00:07 | -31.26682 | -64.20913 | 2880 ft | 134 kts | 180° |
| 2026-04-27 00:08 | -31.27582 | -64.20904 | 2419 ft | 139 kts | 179° |
| 2026-04-27 00:08 | -31.28532 | -64.20869 | 1931 ft | 144 kts | 178° |
| 2026-04-27 00:08 | -31.29478 | -64.20856 | 1652 ft | 140 kts | 179° |
| 2026-04-27 00:08 | -31.30311 | -64.20845 | 1591 ft | 93 kts | 176° |
| 2026-04-27 00:09 | -31.30724 | -64.20840 | 1578 ft | 43 kts | 179° |
| 2026-04-27 00:09 | -31.31011 | -64.20839 | 1571 ft | 37 kts | 179° |
| 2026-04-27 00:09 | -31.31204 | -64.20838 | 1564 ft | 28 kts | 180° |
| 2026-04-27 00:09 | -31.31388 | -64.20833 | 1560 ft | 18 kts | 178° |
| 2026-04-27 00:10 | -31.31459 | -64.20889 | 1561 ft | 12 kts | 257° |
| 2026-04-27 00:10 | -31.31464 | -64.20970 | 1564 ft | 8 kts | 270° |
| 2026-04-27 00:10 | -31.31467 | -64.21017 | 1565 ft | 4 kts | 256° |
| 2026-04-27 00:10 | -31.31477 | -64.21041 | 1566 ft | 3 kts | 231° |
| 2026-04-27 00:11 | -31.31512 | -64.21075 | 1565 ft | 8 kts | 223° |
| 2026-04-27 00:11 | -31.31538 | -64.21122 | 1565 ft | 6 kts | 243° |
| 2026-04-27 00:11 | -31.31543 | -64.21152 | 1566 ft | 2 kts | 266° |
| 2026-04-27 00:11 | -31.31544 | -64.21169 | 1567 ft | 1 kts | 270° |
| 2026-04-27 00:12 | -31.31544 | -64.21171 | 1567 ft | 0 kts | 270° |